createdAt,value
2022-11-25T00:00:01.363Z,99.9
2022-11-25T00:01:02.492Z,99.9
2022-11-25T00:02:01.180Z,99.9
2022-11-25T00:03:01.185Z,99.9
2022-11-25T00:04:01.187Z,99.9
2022-11-25T00:05:01.468Z,99.9
2022-11-25T00:06:00.431Z,99.9
2022-11-25T00:07:00.078Z,99.9
2022-11-25T00:07:59.685Z,99.9
2022-11-25T00:09:01.676Z,99.9
2022-11-25T00:10:01.059Z,99.9
2022-11-25T00:11:01.060Z,99.9
2022-11-25T00:12:01.069Z,99.9
2022-11-25T00:13:01.154Z,99.9
2022-11-25T00:14:01.385Z,99.9
2022-11-25T00:15:01.521Z,99.9
2022-11-25T00:16:01.070Z,99.9
2022-11-25T00:17:01.100Z,99.9
2022-11-25T00:18:01.065Z,99.9
2022-11-25T00:19:01.078Z,99.9
2022-11-25T00:20:01.086Z,99.9
2022-11-25T00:21:01.289Z,99.9
2022-11-25T00:22:02.515Z,99.9
2022-11-25T00:23:01.532Z,99.9
2022-11-25T00:24:01.209Z,99.9
2022-11-25T00:25:01.107Z,99.9
2022-11-25T00:26:01.132Z,99.9
2022-11-25T00:27:01.280Z,99.9
2022-11-25T00:28:01.138Z,99.9
2022-11-25T00:29:01.130Z,99.9
2022-11-25T00:30:01.277Z,99.9
2022-11-25T00:31:01.144Z,99.9
2022-11-25T00:32:01.200Z,99.9
2022-11-25T00:33:01.081Z,99.9
2022-11-25T00:34:01.067Z,99.9
2022-11-25T00:35:01.742Z,99.9
2022-11-25T00:36:01.043Z,99.9
2022-11-25T00:37:01.187Z,99.9
2022-11-25T00:38:01.133Z,99.9
2022-11-25T00:39:01.102Z,99.9
2022-11-25T00:40:01.367Z,99.9
2022-11-25T00:41:01.105Z,99.9
2022-11-25T00:42:01.125Z,99.9
2022-11-25T00:43:01.138Z,99.9
2022-11-25T00:44:01.069Z,99.9
2022-11-25T00:45:01.043Z,99.9
2022-11-25T00:46:01.165Z,99.9
2022-11-25T00:47:01.040Z,99.9
2022-11-25T00:48:01.068Z,99.9
2022-11-25T00:49:01.079Z,99.9
2022-11-25T00:50:01.472Z,99.9
2022-11-25T00:51:04.312Z,99.9
2022-11-25T00:52:01.164Z,99.9
2022-11-25T00:53:01.812Z,99.9
2022-11-25T00:54:01.401Z,99.9
2022-11-25T00:55:02.520Z,99.9
2022-11-25T00:56:02.617Z,99.9
2022-11-25T00:57:01.507Z,99.9
2022-11-25T00:58:01.225Z,99.9
2022-11-25T00:59:01.115Z,99.9
2022-11-25T01:00:01.130Z,99.9
2022-11-25T01:01:04.075Z,99.9
2022-11-25T01:02:01.958Z,99.9
2022-11-25T01:03:01.169Z,99.9
2022-11-25T01:04:01.042Z,99.9
2022-11-25T01:05:01.047Z,99.9
2022-11-25T01:06:06.408Z,99.9
2022-11-25T01:07:01.138Z,99.9
2022-11-25T01:08:01.067Z,99.9
2022-11-25T01:09:01.064Z,99.9
2022-11-25T01:10:01.063Z,99.9
2022-11-25T01:11:09.730Z,99.9
2022-11-25T01:12:01.042Z,99.9
2022-11-25T01:13:00.663Z,99.9
2022-11-25T01:14:01.621Z,99.9
2022-11-25T01:15:01.507Z,99.9
2022-11-25T01:16:12.901Z,99.9
2022-11-25T01:17:01.326Z,99.9
2022-11-25T01:18:01.129Z,99.9
2022-11-25T01:19:01.060Z,99.9
2022-11-25T01:20:01.062Z,99.9
2022-11-25T01:21:15.663Z,99.9
2022-11-25T01:22:01.307Z,99.9
2022-11-25T01:23:02.296Z,99.9
2022-11-25T01:24:04.517Z,99.9
2022-11-25T01:25:04.468Z,99.9
2022-11-25T01:26:01.698Z,99.9
2022-11-25T01:27:01.909Z,99.9
2022-11-25T01:28:01.394Z,99.9
2022-11-25T01:29:01.045Z,99.9
2022-11-25T01:30:01.116Z,99.9
2022-11-25T01:31:00.664Z,99.9
2022-11-25T01:32:00.415Z,99.9
2022-11-25T01:33:00.192Z,99.9
2022-11-25T01:33:59.792Z,99.9
2022-11-25T01:35:01.427Z,99.9
2022-11-25T01:36:02.432Z,99.9
2022-11-25T01:37:01.053Z,99.9
2022-11-25T01:38:01.058Z,99.9
2022-11-25T01:39:01.075Z,99.9
2022-11-25T01:40:01.071Z,99.9
2022-11-25T01:41:01.082Z,99.9
2022-11-25T01:42:01.357Z,99.9
2022-11-25T01:43:01.340Z,99.9
2022-11-25T01:44:02.278Z,99.9
2022-11-25T01:45:02.125Z,99.9
2022-11-25T01:46:01.151Z,99.9
2022-11-25T01:47:01.143Z,99.9
2022-11-25T01:48:01.043Z,99.9
2022-11-25T01:49:01.065Z,99.9
2022-11-25T01:50:01.091Z,99.9
2022-11-25T01:51:01.199Z,99.9
2022-11-25T01:52:01.862Z,99.9
2022-11-25T01:53:01.850Z,99.9
2022-11-25T01:54:01.033Z,99.9
2022-11-25T01:55:01.648Z,99.9
2022-11-25T01:56:01.079Z,99.9
2022-11-25T01:57:01.307Z,99.9
2022-11-25T01:58:01.180Z,99.9
2022-11-25T01:59:01.112Z,99.9
2022-11-25T02:00:01.104Z,99.9
2022-11-25T02:01:01.208Z,99.9
2022-11-25T02:02:01.532Z,99.9
2022-11-25T02:03:01.199Z,99.9
2022-11-25T02:04:01.233Z,99.9
2022-11-25T02:05:01.127Z,99.9
2022-11-25T02:06:01.046Z,99.9
2022-11-25T02:07:01.077Z,99.9
2022-11-25T02:08:01.204Z,99.9
2022-11-25T02:09:01.161Z,99.9
2022-11-25T02:10:01.154Z,99.9
2022-11-25T02:11:01.866Z,99.9
2022-11-25T02:12:01.755Z,99.9
2022-11-25T02:13:02.132Z,99.9
2022-11-25T02:14:01.203Z,99.9
2022-11-25T02:15:01.543Z,99.9
2022-11-25T02:16:02.585Z,99.9
2022-11-25T02:17:01.169Z,99.9
2022-11-25T02:18:01.283Z,99.9
2022-11-25T02:19:01.297Z,99.9
2022-11-25T02:20:01.367Z,99.9
2022-11-25T02:21:02.033Z,99.9
2022-11-25T02:22:01.169Z,99.9
2022-11-25T02:23:01.174Z,99.9
2022-11-25T02:24:01.164Z,99.9
2022-11-25T02:25:01.142Z,99.9
2022-11-25T02:26:01.795Z,99.9
2022-11-25T02:27:01.195Z,99.9
2022-11-25T02:28:01.451Z,99.9
2022-11-25T02:29:00.883Z,99.9
2022-11-25T02:30:01.203Z,99.9
2022-11-25T02:31:01.082Z,99.9
2022-11-25T02:32:01.204Z,99.9
2022-11-25T02:33:01.776Z,99.9
2022-11-25T02:34:01.048Z,99.9
2022-11-25T02:35:01.112Z,99.9
2022-11-25T02:36:01.052Z,99.9
2022-11-25T02:37:01.500Z,99.9
2022-11-25T02:38:01.125Z,99.9
2022-11-25T02:39:01.171Z,99.9
2022-11-25T02:40:01.149Z,99.9
2022-11-25T02:41:01.154Z,99.9
2022-11-25T02:42:01.778Z,99.9
2022-11-25T02:43:01.159Z,99.9
2022-11-25T02:44:01.051Z,99.9
2022-11-25T02:45:01.066Z,99.9
2022-11-25T02:46:01.157Z,99.9
2022-11-25T02:47:02.205Z,99.9
2022-11-25T02:48:01.801Z,99.9
2022-11-25T02:49:08.938Z,99.9
2022-11-25T02:50:01.776Z,99.9
2022-11-25T02:51:01.118Z,99.9
2022-11-25T02:52:04.948Z,99.9
2022-11-25T02:53:01.119Z,99.9
2022-11-25T02:54:00.736Z,99.9
2022-11-25T02:55:00.681Z,99.9
2022-11-25T02:56:00.283Z,99.9
2022-11-25T02:57:07.114Z,99.9
2022-11-25T02:58:02.861Z,99.9
2022-11-25T02:59:01.073Z,99.9
2022-11-25T03:00:01.064Z,99.9
2022-11-25T03:01:01.165Z,99.9
2022-11-25T03:02:10.357Z,99.9
2022-11-25T03:03:02.637Z,99.9
2022-11-25T03:04:01.117Z,99.9
2022-11-25T03:05:02.150Z,99.9
2022-11-25T03:06:01.634Z,99.9
2022-11-25T03:07:13.762Z,99.9
2022-11-25T03:08:01.295Z,99.9
2022-11-25T03:09:02.483Z,99.9
2022-11-25T03:10:01.325Z,99.9
2022-11-25T03:11:02.858Z,99.9
2022-11-25T03:12:17.298Z,99.9
2022-11-25T03:13:02.762Z,99.9
2022-11-25T03:14:01.375Z,99.9
2022-11-25T03:15:01.240Z,99.9
2022-11-25T03:16:02.135Z,99.9
2022-11-25T03:17:01.492Z,99.9
2022-11-25T03:18:01.042Z,99.9
2022-11-25T03:19:01.199Z,99.9
2022-11-25T03:20:01.166Z,99.9
2022-11-25T03:21:01.094Z,99.9
2022-11-25T03:22:01.053Z,99.9
2022-11-25T03:23:01.053Z,99.9
2022-11-25T03:24:01.117Z,99.9
2022-11-25T03:25:01.511Z,99.9
2022-11-25T03:26:01.231Z,99.9
2022-11-25T03:27:01.328Z,99.9
2022-11-25T03:28:01.949Z,99.9
2022-11-25T03:29:01.952Z,99.9
2022-11-25T03:30:01.145Z,99.9
2022-11-25T03:31:01.055Z,99.9
2022-11-25T03:32:05.471Z,99.9
2022-11-25T03:33:01.398Z,99.9
2022-11-25T03:34:01.346Z,99.9
2022-11-25T03:35:08.626Z,99.9
2022-11-25T03:36:01.081Z,99.9
2022-11-25T03:37:03.899Z,99.9
2022-11-25T03:38:01.085Z,99.9
2022-11-25T03:39:01.062Z,99.9
2022-11-25T03:40:01.787Z,99.9
2022-11-25T03:41:01.122Z,99.9
2022-11-25T03:42:01.117Z,99.9
2022-11-25T03:43:01.511Z,99.9
2022-11-25T03:44:02.146Z,99.9
2022-11-25T03:45:01.698Z,99.9
2022-11-25T03:46:01.885Z,99.9
2022-11-25T03:47:01.930Z,99.9
2022-11-25T03:48:01.152Z,99.9
2022-11-25T03:49:01.086Z,99.9
2022-11-25T03:50:01.119Z,99.9
2022-11-25T03:51:01.462Z,99.9
2022-11-25T03:52:01.767Z,99.9
2022-11-25T03:53:01.374Z,99.9
2022-11-25T03:54:01.176Z,99.9
2022-11-25T03:55:01.117Z,99.9
2022-11-25T03:56:01.223Z,99.9
2022-11-25T03:57:01.157Z,99.9
2022-11-25T03:58:01.139Z,99.9
2022-11-25T03:59:01.059Z,99.9
2022-11-25T04:00:01.699Z,99.9
2022-11-25T04:01:01.757Z,99.9
2022-11-25T04:02:01.565Z,99.9
2022-11-25T04:03:01.043Z,99.9
2022-11-25T04:04:03.789Z,99.9
2022-11-25T04:05:01.749Z,99.9
2022-11-25T04:06:01.123Z,99.9
2022-11-25T04:07:04.032Z,99.9
2022-11-25T04:08:01.842Z,99.9
2022-11-25T04:09:01.429Z,99.9
2022-11-25T04:10:01.168Z,99.9
2022-11-25T04:11:01.096Z,99.9
2022-11-25T04:12:01.111Z,99.9
2022-11-25T04:13:01.103Z,99.9
2022-11-25T04:14:01.110Z,99.9
2022-11-25T04:15:01.236Z,99.9
2022-11-25T04:16:01.238Z,99.9
2022-11-25T04:17:01.356Z,99.9
2022-11-25T04:18:01.193Z,99.9
2022-11-25T04:19:01.065Z,99.9
2022-11-25T04:20:01.217Z,99.9
2022-11-25T04:21:01.196Z,99.9
2022-11-25T04:22:01.312Z,99.9
2022-11-25T04:23:01.834Z,99.9
2022-11-25T04:24:02.902Z,99.9
2022-11-25T04:25:01.867Z,99.9
2022-11-25T04:26:01.086Z,99.9
2022-11-25T04:27:01.096Z,99.9
2022-11-25T04:28:05.941Z,99.9
2022-11-25T04:29:01.037Z,99.9
2022-11-25T04:30:01.135Z,99.9
2022-11-25T04:31:01.144Z,99.9
2022-11-25T04:32:01.121Z,99.9
2022-11-25T04:33:10.309Z,99.9
2022-11-25T04:34:01.384Z,99.9
2022-11-25T04:35:01.070Z,99.9
2022-11-25T04:36:01.183Z,99.9
2022-11-25T04:37:01.169Z,99.9
2022-11-25T04:38:10.449Z,99.9
2022-11-25T04:39:01.879Z,99.9
2022-11-25T04:40:01.323Z,99.9
2022-11-25T04:41:01.102Z,99.9
2022-11-25T04:42:01.095Z,99.9
2022-11-25T04:43:13.430Z,99.9
2022-11-25T04:44:01.112Z,99.9
2022-11-25T04:45:22.004Z,99.9
2022-11-25T04:46:16.927Z,99.9
2022-11-25T04:47:01.598Z,99.9
2022-11-25T04:48:01.156Z,99.9
2022-11-25T04:49:02.049Z,99.9
2022-11-25T04:50:01.150Z,99.9
2022-11-25T04:51:01.864Z,99.9
2022-11-25T04:52:01.152Z,99.9
2022-11-25T04:53:01.172Z,99.9
2022-11-25T04:54:01.519Z,99.9
2022-11-25T04:55:02.125Z,99.9
2022-11-25T04:56:01.140Z,99.9
2022-11-25T04:57:01.892Z,99.9
2022-11-25T04:58:01.503Z,99.9
2022-11-25T04:59:00.586Z,99.9
2022-11-25T05:00:00.214Z,99.9
2022-11-25T05:01:00.047Z,99.9
2022-11-25T05:01:59.844Z,99.9
2022-11-25T05:03:01.513Z,99.9
2022-11-25T05:04:01.182Z,99.9
2022-11-25T05:05:02.853Z,99.9
2022-11-25T05:06:01.200Z,99.9
2022-11-25T05:07:01.139Z,99.9
2022-11-25T05:08:01.149Z,99.9
2022-11-25T05:09:01.819Z,99.9
2022-11-25T05:10:01.317Z,99.9
2022-11-25T05:11:02.167Z,99.9
2022-11-25T05:12:01.274Z,99.9
2022-11-25T05:13:02.350Z,99.9
2022-11-25T05:14:00.520Z,99.9
2022-11-25T05:15:00.643Z,99.9
2022-11-25T05:16:00.359Z,99.9
2022-11-25T05:17:00.183Z,99.9
2022-11-25T05:17:59.866Z,99.9
2022-11-25T05:19:01.796Z,99.9
2022-11-25T05:20:02.102Z,99.9
2022-11-25T05:21:02.694Z,99.9
2022-11-25T05:22:02.016Z,99.9
2022-11-25T05:23:01.730Z,99.9
2022-11-25T05:24:01.162Z,99.9
2022-11-25T05:25:01.793Z,99.9
2022-11-25T05:26:01.234Z,99.9
2022-11-25T05:27:01.064Z,99.9
2022-11-25T05:28:01.082Z,99.9
2022-11-25T05:29:01.444Z,99.9
2022-11-25T05:30:01.071Z,99.9
2022-11-25T05:31:01.157Z,99.9
2022-11-25T05:32:02.110Z,99.9
2022-11-25T05:33:01.056Z,99.9
2022-11-25T05:34:01.073Z,99.9
2022-11-25T05:35:01.065Z,99.9
2022-11-25T05:36:01.124Z,99.9
2022-11-25T05:37:01.144Z,99.9
2022-11-25T05:38:01.237Z,99.9
2022-11-25T05:39:02.072Z,99.9
2022-11-25T05:40:01.970Z,99.9
2022-11-25T05:41:01.173Z,99.9
2022-11-25T05:42:01.074Z,99.9
2022-11-25T05:43:01.065Z,99.9
2022-11-25T05:44:01.084Z,99.9
2022-11-25T05:45:01.077Z,99.9
2022-11-25T05:46:01.094Z,99.9
2022-11-25T05:47:01.462Z,99.9
2022-11-25T05:48:01.106Z,99.9
2022-11-25T05:49:01.243Z,99.9
2022-11-25T05:50:01.347Z,99.9
2022-11-25T05:51:02.038Z,99.9
2022-11-25T05:52:01.629Z,99.9
2022-11-25T05:53:01.158Z,99.9
2022-11-25T05:54:01.143Z,99.9
2022-11-25T05:55:00.814Z,99.9
2022-11-25T05:56:00.384Z,99.9
2022-11-25T05:56:59.928Z,99.9
2022-11-25T05:57:59.875Z,99.9
2022-11-25T05:58:59.487Z,99.9
2022-11-25T06:00:01.129Z,99.9
2022-11-25T06:01:01.801Z,99.9
2022-11-25T06:02:02.161Z,99.9
2022-11-25T06:03:01.989Z,99.9
2022-11-25T06:04:01.797Z,99.9
2022-11-25T06:05:01.217Z,99.9
2022-11-25T06:06:01.863Z,99.9
2022-11-25T06:07:01.255Z,99.9
2022-11-25T06:08:01.256Z,99.9
2022-11-25T06:09:01.801Z,99.9
2022-11-25T06:10:03.411Z,99.9
2022-11-25T06:11:01.749Z,99.9
2022-11-25T06:12:02.032Z,99.9
2022-11-25T06:13:04.425Z,99.9
2022-11-25T06:14:04.745Z,99.9
2022-11-25T06:15:01.650Z,99.9
2022-11-25T06:16:07.560Z,99.9
2022-11-25T06:17:01.432Z,99.9
2022-11-25T06:18:01.175Z,99.9
2022-11-25T06:19:07.757Z,99.9
2022-11-25T06:20:00.764Z,99.9
2022-11-25T06:21:00.374Z,99.9
2022-11-25T06:21:59.912Z,99.9
2022-11-25T06:22:59.486Z,99.9
2022-11-25T06:24:10.329Z,99.9
2022-11-25T06:25:03.870Z,99.9
2022-11-25T06:26:04.429Z,99.9
2022-11-25T06:27:01.066Z,99.9
2022-11-25T06:28:16.507Z,99.9
2022-11-25T06:29:13.401Z,99.9
2022-11-25T06:30:01.164Z,99.9
2022-11-25T06:31:01.322Z,99.9
2022-11-25T06:32:01.084Z,99.9
2022-11-25T06:33:01.090Z,99.9
2022-11-25T06:34:16.739Z,99.9
2022-11-25T06:35:00.904Z,99.9
2022-11-25T06:36:01.046Z,99.9
2022-11-25T06:37:01.050Z,99.9
2022-11-25T06:38:01.067Z,99.9
2022-11-25T06:39:01.636Z,99.9
2022-11-25T06:40:01.044Z,99.9
2022-11-25T06:41:01.040Z,99.9
2022-11-25T06:42:01.222Z,99.9
2022-11-25T06:43:01.867Z,99.9
2022-11-25T06:44:01.957Z,99.9
2022-11-25T06:45:01.555Z,99.9
2022-11-25T06:46:02.195Z,99.9
2022-11-25T06:47:01.047Z,99.9
2022-11-25T06:48:01.054Z,99.9
2022-11-25T06:49:01.077Z,99.9
2022-11-25T06:50:01.112Z,99.9
2022-11-25T06:51:01.079Z,99.9
2022-11-25T06:52:01.347Z,99.9
2022-11-25T06:53:01.481Z,99.9
2022-11-25T06:54:01.193Z,99.9
2022-11-25T06:55:01.060Z,99.9
2022-11-25T06:56:01.102Z,99.9
2022-11-25T06:57:01.775Z,99.9
2022-11-25T06:58:27.857Z,99.9
2022-11-25T06:59:01.445Z,99.9
2022-11-25T07:00:02.201Z,99.9
2022-11-25T07:01:01.230Z,99.9
2022-11-25T07:02:01.936Z,99.9
2022-11-25T07:03:01.205Z,99.9
2022-11-25T07:04:01.065Z,99.9
2022-11-25T07:05:01.106Z,99.9
2022-11-25T07:06:01.060Z,99.9
2022-11-25T07:07:01.072Z,99.9
2022-11-25T07:08:01.235Z,99.9
2022-11-25T07:09:01.056Z,99.9
2022-11-25T07:10:01.017Z,99.9
2022-11-25T07:11:01.685Z,99.9
2022-11-25T07:12:01.299Z,99.9
2022-11-25T07:13:01.939Z,99.9
2022-11-25T07:14:01.111Z,99.9
2022-11-25T07:15:01.066Z,99.9
2022-11-25T07:16:01.175Z,99.9
2022-11-25T07:17:01.046Z,99.9
2022-11-25T07:18:01.145Z,99.9
2022-11-25T07:19:01.696Z,99.9
2022-11-25T07:20:01.867Z,99.9
2022-11-25T07:21:01.375Z,99.9
2022-11-25T07:22:02.083Z,99.9
2022-11-25T07:23:02.513Z,99.9
2022-11-25T07:24:01.086Z,99.9
2022-11-25T07:25:01.803Z,99.9
2022-11-25T07:26:01.380Z,99.9
2022-11-25T07:27:01.161Z,99.9
2022-11-25T07:28:01.479Z,99.9
2022-11-25T07:29:01.488Z,99.9
2022-11-25T07:30:41.547Z,99.9
2022-11-25T07:32:05.646Z,99.9
2022-11-25T07:33:01.191Z,99.9
2022-11-25T07:34:01.150Z,99.9
2022-11-25T07:35:01.383Z,99.9
2022-11-25T07:36:01.423Z,99.9
2022-11-25T07:37:01.968Z,99.9
2022-11-25T07:38:01.299Z,99.9
2022-11-25T07:39:01.086Z,99.9
2022-11-25T07:40:00.665Z,99.9
2022-11-25T07:41:00.257Z,99.9
2022-11-25T07:41:59.948Z,99.9
2022-11-25T07:42:59.874Z,99.9
2022-11-25T07:44:01.847Z,99.9
2022-11-25T07:45:01.172Z,99.9
2022-11-25T07:46:01.297Z,99.9
2022-11-25T07:47:01.150Z,99.9
2022-11-25T07:48:01.287Z,99.9
2022-11-25T07:49:03.046Z,99.9
2022-11-25T07:50:01.559Z,99.9
2022-11-25T07:51:01.150Z,99.9
2022-11-25T07:52:02.399Z,99.9
2022-11-25T07:53:02.397Z,99.9
2022-11-25T07:54:01.462Z,99.9
2022-11-25T07:55:02.596Z,99.9
2022-11-25T07:56:01.248Z,99.9
2022-11-25T07:57:01.078Z,99.9
2022-11-25T07:58:01.071Z,99.9
2022-11-25T07:59:01.087Z,99.9
2022-11-25T08:00:05.196Z,99.9
2022-11-25T08:01:01.108Z,99.9
2022-11-25T08:02:01.539Z,99.9
2022-11-25T08:03:02.243Z,99.9
2022-11-25T08:04:01.197Z,99.9
2022-11-25T08:05:08.984Z,99.9
2022-11-25T08:06:01.135Z,99.9
2022-11-25T08:07:01.050Z,99.9
2022-11-25T08:08:01.183Z,99.9
2022-11-25T08:09:01.042Z,99.9
2022-11-25T08:10:11.456Z,99.9
2022-11-25T08:11:01.063Z,99.9
2022-11-25T08:12:01.060Z,99.9
2022-11-25T08:13:01.038Z,99.9
2022-11-25T08:14:01.152Z,99.9
2022-11-25T08:15:15.425Z,99.9
2022-11-25T08:16:00.987Z,99.9
2022-11-25T08:17:01.481Z,99.9
2022-11-25T08:18:02.679Z,99.9
2022-11-25T08:19:01.137Z,99.9
2022-11-25T08:20:01.125Z,99.9
2022-11-25T08:21:01.146Z,99.9
2022-11-25T08:22:01.238Z,99.9
2022-11-25T08:23:01.271Z,99.9
2022-11-25T08:24:01.054Z,99.9
2022-11-25T08:25:01.051Z,99.9
2022-11-25T08:26:01.175Z,99.9
2022-11-25T08:27:01.064Z,99.9
2022-11-25T08:28:01.069Z,99.9
2022-11-25T08:29:01.082Z,99.9
2022-11-25T08:30:01.098Z,99.9
2022-11-25T08:31:01.137Z,99.9
2022-11-25T08:32:01.219Z,99.9
2022-11-25T08:33:02.043Z,99.9
2022-11-25T08:34:01.108Z,99.9
2022-11-25T08:35:01.124Z,99.9
2022-11-25T08:36:00.773Z,99.9
2022-11-25T08:37:00.405Z,99.9
2022-11-25T08:38:00.005Z,99.9
2022-11-25T08:38:59.780Z,99.9
2022-11-25T08:40:01.935Z,99.9
2022-11-25T08:41:01.592Z,99.9
2022-11-25T08:42:02.277Z,99.9
2022-11-25T08:43:01.146Z,99.9
2022-11-25T08:44:01.070Z,99.9
2022-11-25T08:45:01.127Z,99.9
2022-11-25T08:46:01.322Z,99.9
2022-11-25T08:47:01.184Z,99.9
2022-11-25T08:48:01.618Z,99.9
2022-11-25T08:49:01.227Z,99.9
2022-11-25T08:50:01.403Z,99.9
2022-11-25T08:51:00.902Z,99.9
2022-11-25T08:52:00.543Z,99.9
2022-11-25T08:53:00.333Z,99.9
2022-11-25T08:54:00.003Z,99.9
2022-11-25T08:54:59.714Z,99.9
2022-11-25T08:56:01.383Z,99.9
2022-11-25T08:57:00.993Z,99.9
2022-11-25T08:58:01.061Z,99.9
2022-11-25T08:59:01.140Z,99.9
2022-11-25T09:00:01.154Z,99.9
2022-11-25T09:01:01.835Z,99.9
2022-11-25T09:02:01.423Z,99.9
2022-11-25T09:03:04.157Z,99.9
2022-11-25T09:04:08.198Z,99.9
2022-11-25T09:05:02.024Z,99.9
2022-11-25T09:06:01.502Z,99.9
2022-11-25T09:07:01.051Z,99.9
2022-11-25T09:08:01.160Z,99.9
2022-11-25T09:09:01.128Z,99.9
2022-11-25T09:10:01.135Z,99.9
2022-11-25T09:11:01.257Z,99.9
2022-11-25T09:12:02.109Z,99.9
2022-11-25T09:13:01.429Z,99.9
2022-11-25T09:14:01.254Z,99.9
2022-11-25T09:15:02.615Z,99.9
2022-11-25T09:16:01.042Z,99.9
2022-11-25T09:17:01.692Z,99.9
2022-11-25T09:18:01.096Z,99.9
2022-11-25T09:19:01.455Z,99.9
2022-11-25T09:20:01.481Z,99.9
2022-11-25T09:21:01.120Z,99.9
2022-11-25T09:22:01.104Z,99.9
2022-11-25T09:23:01.107Z,99.9
2022-11-25T09:24:01.120Z,99.9
2022-11-25T09:25:01.127Z,99.6
2022-11-25T09:26:01.065Z,98.1
2022-11-25T09:27:01.356Z,97.1
2022-11-25T09:28:01.546Z,96.1
2022-11-25T09:29:02.558Z,95.6
2022-11-25T09:30:01.068Z,94.4
2022-11-25T09:31:01.133Z,92.8
2022-11-25T09:32:01.153Z,90.5
2022-11-25T09:33:01.862Z,87.6
2022-11-25T09:34:01.077Z,85.2
2022-11-25T09:35:01.091Z,83
2022-11-25T09:36:01.623Z,81.4
2022-11-25T09:37:01.277Z,79.9
2022-11-25T09:38:01.958Z,79.1
2022-11-25T09:39:08.322Z,78.6
2022-11-25T09:40:01.133Z,78.3
2022-11-25T09:41:04.481Z,77.9
2022-11-25T09:42:01.141Z,75.1
2022-11-25T09:43:01.525Z,71.1
2022-11-25T09:44:01.529Z,69
2022-11-25T09:45:01.266Z,67.5
2022-11-25T09:46:07.926Z,65.3
2022-11-25T09:47:01.094Z,63.7
2022-11-25T09:48:01.128Z,62.6
2022-11-25T09:49:01.050Z,60.6
2022-11-25T09:50:01.086Z,57.9
2022-11-25T09:51:10.348Z,56.4
2022-11-25T09:52:01.479Z,55.1
2022-11-25T09:53:04.584Z,55
2022-11-25T09:54:01.898Z,54.6
2022-11-25T09:55:01.783Z,54.3
2022-11-25T09:56:14.755Z,53.7
2022-11-25T09:57:00.830Z,52.2
2022-11-25T09:58:00.702Z,50
2022-11-25T09:59:00.313Z,47.5
2022-11-25T09:59:59.904Z,45.9
2022-11-25T10:00:59.578Z,44.8
2022-11-25T10:02:01.211Z,44.2
2022-11-25T10:03:02.068Z,43.9
2022-11-25T10:04:02.516Z,43.7
2022-11-25T10:05:01.127Z,43.1
2022-11-25T10:06:01.428Z,42.2
2022-11-25T10:07:01.206Z,41.9
2022-11-25T10:08:01.101Z,41.6
2022-11-25T10:09:01.091Z,41.5
2022-11-25T10:10:01.941Z,41.5
2022-11-25T10:11:01.172Z,41.5
2022-11-25T10:12:01.120Z,41.7
2022-11-25T10:13:01.134Z,41.7
2022-11-25T10:14:01.552Z,41.2
2022-11-25T10:15:01.145Z,40.9
2022-11-25T10:16:01.223Z,40.8
2022-11-25T10:17:00.623Z,41.5
2022-11-25T10:18:00.232Z,41.6
2022-11-25T10:18:59.916Z,41.4
2022-11-25T10:19:59.628Z,41.4
2022-11-25T10:21:01.755Z,41.5
2022-11-25T10:22:01.447Z,41
2022-11-25T10:23:01.460Z,40.7
2022-11-25T10:24:01.092Z,40.4
2022-11-25T10:25:01.090Z,39.7
2022-11-25T10:26:01.045Z,38.8
2022-11-25T10:27:01.044Z,38.2
2022-11-25T10:28:01.113Z,38.2
2022-11-25T10:29:01.321Z,38.2
2022-11-25T10:30:01.973Z,38.4
2022-11-25T10:31:02.478Z,38.6
2022-11-25T10:32:01.398Z,39.1
2022-11-25T10:33:02.696Z,39.4
2022-11-25T10:34:01.531Z,39.2
2022-11-25T10:35:02.123Z,38.6
2022-11-25T10:36:01.188Z,38.2
2022-11-25T10:37:01.858Z,38.1
2022-11-25T10:38:01.054Z,38.4
2022-11-25T10:39:01.051Z,38.2
2022-11-25T10:40:01.095Z,37.4
2022-11-25T10:41:01.088Z,36.8
2022-11-25T10:42:01.311Z,36.6
2022-11-25T10:43:01.555Z,35.9
2022-11-25T10:44:01.197Z,35.6
2022-11-25T10:45:01.109Z,36.1
2022-11-25T10:46:01.119Z,36.2
2022-11-25T10:47:17.055Z,36.1
2022-11-25T10:48:01.099Z,35.6
2022-11-25T10:49:01.795Z,35.6
2022-11-25T10:50:02.130Z,35.2
2022-11-25T10:51:01.449Z,35
2022-11-25T10:52:02.157Z,35
2022-11-25T10:53:01.069Z,34.9
2022-11-25T10:54:01.044Z,34.9
2022-11-25T10:55:01.093Z,35.1
2022-11-25T10:56:00.658Z,35
2022-11-25T10:57:00.359Z,34.5
2022-11-25T10:57:59.966Z,34.2
2022-11-25T10:58:59.791Z,33.9
2022-11-25T11:00:01.546Z,33.8
2022-11-25T11:01:01.495Z,33.8
2022-11-25T11:02:02.019Z,33.7
2022-11-25T11:03:01.233Z,33.4
2022-11-25T11:04:01.142Z,32.7
2022-11-25T11:05:01.148Z,32.2
2022-11-25T11:06:01.041Z,32.2
2022-11-25T11:07:01.307Z,32
2022-11-25T11:08:01.440Z,31.7
2022-11-25T11:09:01.558Z,31.3
2022-11-25T11:10:01.185Z,31.2
2022-11-25T11:11:04.246Z,30.8
2022-11-25T11:12:01.044Z,30.2
2022-11-25T11:13:01.102Z,30
2022-11-25T11:14:01.088Z,29.8
2022-11-25T11:15:01.121Z,29.8
2022-11-25T11:16:00.837Z,29.7
2022-11-25T11:17:01.112Z,29.3
2022-11-25T11:18:01.237Z,28.4
2022-11-25T11:19:01.153Z,27.8
2022-11-25T11:20:01.141Z,27.7
2022-11-25T11:21:01.142Z,27.7
2022-11-25T11:22:04.187Z,26.8
2022-11-25T11:23:07.011Z,26.5
2022-11-25T11:24:01.626Z,26.6
2022-11-25T11:25:01.332Z,26.7
2022-11-25T11:26:01.671Z,26.8
2022-11-25T11:27:06.876Z,26.7
2022-11-25T11:28:01.746Z,26.7
2022-11-25T11:29:01.081Z,26.8
2022-11-25T11:30:01.115Z,27.1
2022-11-25T11:31:01.202Z,27.3
2022-11-25T11:32:10.154Z,27.4
2022-11-25T11:33:01.440Z,27.2
2022-11-25T11:34:02.120Z,26.8
2022-11-25T11:35:01.236Z,26.6
2022-11-25T11:36:01.132Z,26.6
2022-11-25T11:37:12.227Z,26.5
2022-11-25T11:38:01.134Z,26.2
2022-11-25T11:39:01.150Z,25.6
2022-11-25T11:40:01.163Z,25
2022-11-25T11:41:01.057Z,24.7
2022-11-25T11:42:15.852Z,25
2022-11-25T11:43:01.457Z,24.9
2022-11-25T11:44:01.191Z,24.7
2022-11-25T11:45:01.303Z,24.5
2022-11-25T11:46:01.099Z,24.3
2022-11-25T11:47:01.215Z,24
2022-11-25T11:48:01.385Z,24.4
2022-11-25T11:49:01.945Z,24
2022-11-25T11:50:03.871Z,24.4
2022-11-25T11:51:01.050Z,23.9
2022-11-25T11:52:01.037Z,23.8
2022-11-25T11:53:01.137Z,23.8
2022-11-25T11:54:01.160Z,23.8
2022-11-25T11:55:01.061Z,24
2022-11-25T11:56:33.102Z,24
2022-11-25T11:57:01.044Z,23.1
2022-11-25T11:58:01.170Z,22.9
2022-11-25T11:59:01.064Z,22.9
2022-11-25T12:00:01.081Z,22.3
2022-11-25T12:01:01.086Z,22.1
2022-11-25T12:02:01.164Z,21.7
2022-11-25T12:03:01.845Z,21
2022-11-25T12:04:01.781Z,20.5
2022-11-25T12:05:01.451Z,20.3
2022-11-25T12:06:01.228Z,20.5
2022-11-25T12:07:01.468Z,20.3
2022-11-25T12:08:01.534Z,20
2022-11-25T12:09:01.083Z,19.8
2022-11-25T12:10:01.101Z,19.6
2022-11-25T12:11:01.096Z,19.7
2022-11-25T12:12:01.087Z,19.8
2022-11-25T12:13:01.055Z,19.7
2022-11-25T12:14:01.470Z,19.5
2022-11-25T12:15:01.059Z,19.3
2022-11-25T12:16:01.195Z,19.3
2022-11-25T12:17:01.415Z,19.2
2022-11-25T12:18:01.077Z,19.2
2022-11-25T12:19:01.088Z,19.2
2022-11-25T12:20:01.168Z,19
2022-11-25T12:21:01.194Z,19
2022-11-25T12:22:01.240Z,19.3
2022-11-25T12:23:01.071Z,19.3
2022-11-25T12:24:03.877Z,19.2
2022-11-25T12:25:01.736Z,19.4
2022-11-25T12:26:01.217Z,19.4
2022-11-25T12:27:08.039Z,19.3
2022-11-25T12:28:01.747Z,19.3
2022-11-25T12:29:01.034Z,19.4
2022-11-25T12:30:01.091Z,19.5
2022-11-25T12:31:04.921Z,19.7
2022-11-25T12:32:01.184Z,19.7
2022-11-25T12:33:02.023Z,19.7
2022-11-25T12:34:02.467Z,19.6
2022-11-25T12:35:01.051Z,19.4
2022-11-25T12:36:01.214Z,19.6
2022-11-25T12:37:01.613Z,19.4
2022-11-25T12:38:01.125Z,19.7
2022-11-25T12:39:01.113Z,19.7
2022-11-25T12:40:01.401Z,19.7
2022-11-25T12:41:01.313Z,19.9
2022-11-25T12:42:01.128Z,19.9
2022-11-25T12:43:01.141Z,19.7
2022-11-25T12:44:02.318Z,19.5
2022-11-25T12:45:01.390Z,19.6
2022-11-25T12:46:02.145Z,19.7
2022-11-25T12:47:01.074Z,19.7
2022-11-25T12:48:01.079Z,19.6
2022-11-25T12:49:01.069Z,19.8
2022-11-25T12:50:01.087Z,20
2022-11-25T12:51:01.130Z,20
2022-11-25T12:52:01.122Z,20
2022-11-25T12:53:01.660Z,20
2022-11-25T12:54:04.172Z,20.2
2022-11-25T12:55:01.682Z,20.2
2022-11-25T12:56:00.815Z,20
2022-11-25T12:57:01.128Z,20
2022-11-25T12:58:04.444Z,19.7
2022-11-25T12:59:01.130Z,19.9
2022-11-25T13:00:25.433Z,20
2022-11-25T13:01:01.615Z,20
2022-11-25T13:02:01.660Z,20
2022-11-25T13:03:13.589Z,20
2022-11-25T13:04:01.753Z,19.8
2022-11-25T13:05:25.294Z,19.7
2022-11-25T13:06:01.533Z,19.6
2022-11-25T13:07:01.201Z,19.5
2022-11-25T13:08:10.259Z,19.3
2022-11-25T13:09:01.903Z,19.3
2022-11-25T13:10:02.030Z,19.8
2022-11-25T13:11:01.821Z,21.4
2022-11-25T13:12:01.785Z,21.6
2022-11-25T13:13:17.993Z,22.3
2022-11-25T13:14:02.891Z,22.9
2022-11-25T13:15:01.810Z,22.1
2022-11-25T13:16:02.355Z,21.4
2022-11-25T13:17:01.742Z,21.1
2022-11-25T13:18:16.101Z,21
2022-11-25T13:19:01.440Z,21.1
2022-11-25T13:20:01.204Z,21
2022-11-25T13:21:02.194Z,21.1